Terminal Aerodrome Forecast
Issued by NWS Charleston, WV

Current Version | Previous Version | Text Only | Print | Product List | Glossary Off
Versions: 1 2 3 4 5 6 7 8 9 10 11 12 13 14 15 16 17 18 19 20 21 22

000
FTUS41 KRLX 210700 AAA
TAFBKW
TAF AMD
KBKW 210750Z 2108/2206 14011KT P6SM SCT012 BKN070
     FM211000 VRB03KT P6SM SCT007 BKN012
     FM211400 13005KT P6SM SCT015 BKN035
     FM212000 13005KT P6SM VCTS SCT030CB BKN040
     FM220200 13006KT P6SM SCT030
     FM220300 13006KT P6SM SCT250=

USA.gov is the U.S. government's official web portal to all federal, state and local government web resources and services.